createdAt,value
2022-08-03T00:00:26.325Z,61.33
2022-08-03T00:02:53.357Z,63.04
2022-08-03T00:05:20.119Z,63.79
2022-08-03T00:07:46.641Z,64.30
2022-08-03T00:10:17.258Z,64.05
2022-08-03T00:12:43.848Z,64.15
2022-08-03T00:15:15.182Z,63.78
2022-08-03T00:17:52.881Z,65.20
2022-08-03T00:20:21.787Z,63.09
2022-08-03T00:22:49.083Z,64.81
2022-08-03T00:25:16.027Z,65.35
2022-08-03T00:27:42.560Z,65.02
2022-08-03T00:30:09.549Z,65.73
2022-08-03T00:32:36.147Z,66.03
2022-08-03T00:35:09.231Z,65.06
2022-08-03T00:37:40.859Z,64.28
2022-08-03T00:40:13.581Z,65.04
2022-08-03T00:42:53.992Z,64.65
2022-08-03T00:45:22.932Z,66.57
2022-08-03T00:47:49.865Z,65.51
2022-08-03T00:50:17.861Z,64.47
2022-08-03T00:52:44.675Z,66.56
2022-08-03T00:55:11.941Z,67.33
2022-08-03T00:57:39.027Z,66.45
2022-08-03T01:00:07.958Z,64.63
2022-08-03T01:02:34.622Z,64.22
2022-08-03T01:05:01.171Z,65.88
2022-08-03T01:07:37.073Z,63.77
2022-08-03T01:10:12.328Z,63.86
2022-08-03T01:12:44.003Z,63.61
2022-08-03T01:15:19.690Z,65.00
2022-08-03T01:18:16.932Z,66.20
2022-08-03T01:20:47.496Z,66.74
2022-08-03T01:23:46.285Z,66.10
2022-08-03T01:26:47.678Z,66.13
2022-08-03T01:29:45.807Z,65.99
2022-08-03T01:32:58.206Z,66.36
2022-08-03T01:35:15.280Z,65.87
2022-08-03T01:37:47.788Z,65.84
2022-08-03T01:40:15.997Z,65.53
2022-08-03T01:42:45.537Z,64.91
2022-08-03T01:45:15.439Z,64.12
2022-08-03T01:47:44.657Z,63.82
2022-08-03T01:50:13.294Z,63.07
2022-08-03T01:52:42.621Z,62.96
2022-08-03T01:55:10.808Z,62.88
2022-08-03T01:58:05.300Z,60.64
2022-08-03T02:00:27.082Z,60.26
2022-08-03T02:02:56.019Z,59.64
2022-08-03T02:05:23.132Z,59.30
2022-08-03T02:07:50.874Z,59.90
2022-08-03T02:10:34.442Z,59.89
2022-08-03T02:13:05.161Z,59.99
2022-08-03T02:15:33.978Z,59.97
2022-08-03T02:18:03.076Z,59.56
2022-08-03T02:20:33.137Z,59.89
2022-08-03T02:23:00.295Z,60.86
2022-08-03T02:25:27.629Z,61.02
2022-08-03T02:28:01.853Z,61.12
2022-08-03T02:30:37.011Z,61.20
2022-08-03T02:33:05.226Z,60.44
2022-08-03T02:35:34.096Z,61.00
2022-08-03T02:38:03.850Z,60.39
2022-08-03T02:40:32.423Z,61.60
2022-08-03T02:43:08.977Z,61.23
2022-08-03T02:45:41.481Z,62.06
2022-08-03T02:48:11.763Z,62.55
2022-08-03T02:50:39.710Z,62.22
2022-08-03T02:53:07.917Z,62.93
2022-08-03T02:55:35.873Z,63.23
2022-08-03T02:58:12.685Z,62.80
2022-08-03T03:00:40.484Z,64.06
2022-08-03T03:03:08.150Z,63.12
2022-08-03T03:05:53.402Z,62.09
2022-08-03T03:08:28.478Z,61.60
2022-08-03T03:11:00.893Z,61.08
2022-08-03T03:13:30.246Z,62.64
2022-08-03T03:16:01.457Z,63.43
2022-08-03T03:18:31.005Z,63.04
2022-08-03T03:20:58.950Z,61.15
2022-08-03T03:23:28.086Z,62.86
2022-08-03T03:25:56.472Z,62.74
2022-08-03T03:28:24.106Z,62.20
2022-08-03T03:30:53.021Z,61.88
2022-08-03T03:33:20.421Z,61.99
2022-08-03T03:35:47.388Z,62.24
2022-08-03T03:38:14.037Z,61.84
2022-08-03T03:40:41.313Z,62.50
2022-08-03T03:43:09.032Z,62.69
2022-08-03T03:45:36.098Z,62.59
2022-08-03T03:48:05.379Z,63.92
2022-08-03T03:50:33.805Z,64.79
2022-08-03T03:53:00.288Z,65.19
2022-08-03T03:55:32.191Z,65.00
2022-08-03T03:57:58.794Z,65.22
2022-08-03T04:00:25.727Z,64.99
2022-08-03T04:02:52.341Z,65.18
2022-08-03T04:05:38.683Z,67.10
2022-08-03T04:08:29.313Z,67.12
2022-08-03T04:11:11.638Z,67.76
2022-08-03T04:13:42.413Z,66.54
2022-08-03T04:16:12.203Z,65.45
2022-08-03T04:18:41.255Z,64.33
2022-08-03T04:21:12.374Z,64.03
2022-08-03T04:23:44.657Z,62.89
2022-08-03T04:26:13.388Z,62.80
2022-08-03T04:28:43.440Z,63.14
2022-08-03T04:31:10.461Z,62.52
2022-08-03T04:33:39.622Z,61.87
2022-08-03T04:36:08.891Z,61.89
2022-08-03T04:38:44.474Z,62.63
2022-08-03T04:41:12.562Z,62.36
2022-08-03T04:43:41.758Z,62.13
2022-08-03T04:46:09.156Z,62.31
2022-08-03T04:48:35.917Z,62.34
2022-08-03T04:51:04.451Z,61.66
2022-08-03T04:53:31.314Z,61.09
2022-08-03T04:56:05.775Z,60.57
2022-08-03T04:58:32.956Z,59.97
2022-08-03T05:01:00.584Z,59.62
2022-08-03T05:03:27.119Z,57.78
2022-08-03T05:06:01.620Z,57.00
2022-08-03T05:08:36.134Z,53.28
2022-08-03T05:11:13.164Z,53.20
2022-08-03T05:13:39.761Z,54.12
2022-08-03T05:16:06.281Z,51.54
2022-08-03T05:18:32.892Z,52.46
2022-08-03T05:20:59.482Z,53.46
2022-08-03T05:23:26.042Z,54.08
2022-08-03T05:25:52.586Z,54.35
2022-08-03T05:28:19.305Z,47.21
2022-08-03T05:30:46.337Z,49.38
2022-08-03T05:33:13.097Z,50.58
2022-08-03T05:36:01.594Z,51.34
2022-08-03T05:38:28.644Z,54.39
2022-08-03T05:41:23.544Z,51.72
2022-08-03T05:43:46.739Z,56.94
2022-08-03T05:46:13.812Z,52.68
2022-08-03T05:48:41.269Z,55.80
2022-08-03T05:51:11.388Z,50.54
2022-08-03T05:53:39.765Z,49.36
2022-08-03T05:56:14.507Z,49.48
2022-08-03T05:58:48.287Z,51.88
2022-08-03T06:01:16.245Z,49.73
2022-08-03T06:03:43.186Z,50.12
2022-08-03T06:06:11.306Z,48.96
2022-08-03T06:08:38.212Z,52.88
2022-08-03T06:11:04.914Z,51.66
2022-08-03T06:13:32.278Z,39.27
2022-08-03T06:15:58.954Z,42.57
2022-08-03T06:18:25.794Z,48.34
2022-08-03T06:20:52.967Z,34.07
2022-08-03T06:23:19.588Z,37.05
2022-08-03T06:25:47.377Z,48.76
2022-08-03T06:28:42.578Z,33.00
2022-08-03T06:31:01.502Z,41.59
2022-08-03T06:34:22.877Z,39.59
2022-08-03T06:36:15.194Z,33.62
2022-08-03T06:38:41.784Z,40.52
2022-08-03T06:41:08.301Z,32.91
2022-08-03T06:43:37.774Z,33.80
2022-08-03T06:46:05.683Z,39.15
2022-08-03T06:48:41.496Z,30.64
2022-08-03T06:51:08.547Z,35.05
2022-08-03T06:53:35.091Z,36.15
2022-08-03T06:56:01.649Z,37.91
2022-08-03T06:58:28.243Z,33.45
2022-08-03T07:00:54.796Z,39.48
2022-08-03T07:03:21.883Z,32.37
2022-08-03T07:05:49.121Z,40.12
2022-08-03T07:08:15.686Z,38.01
2022-08-03T07:10:42.565Z,31.65
2022-08-03T07:13:09.249Z,29.51
2022-08-03T07:15:54.304Z,35.46
2022-08-03T07:18:27.620Z,32.17
2022-08-03T07:20:57.449Z,37.04
2022-08-03T07:23:24.163Z,36.03
2022-08-03T07:25:50.968Z,35.12
2022-08-03T07:28:17.673Z,30.94
2022-08-03T07:30:44.301Z,30.24
2022-08-03T07:33:11.147Z,33.22
2022-08-03T07:35:37.771Z,34.91
2022-08-03T07:38:04.346Z,30.76
2022-08-03T07:40:31.915Z,29.95
2022-08-03T07:42:59.457Z,33.74
2022-08-03T07:45:26.753Z,31.30
2022-08-03T07:47:54.229Z,34.23
2022-08-03T07:50:21.977Z,30.69
2022-08-03T07:52:49.583Z,30.50
2022-08-03T07:55:17.807Z,32.28
2022-08-03T07:57:44.571Z,31.52
2022-08-03T08:00:19.471Z,31.06
2022-08-03T08:02:46.587Z,30.57
2022-08-03T08:05:13.278Z,30.05
2022-08-03T08:07:40.471Z,32.01
2022-08-03T08:10:10.112Z,31.33
2022-08-03T08:12:38.783Z,30.47
2022-08-03T08:15:06.172Z,30.65
2022-08-03T08:17:40.829Z,30.48
2022-08-03T08:20:07.986Z,29.84
2022-08-03T08:22:35.536Z,28.63
2022-08-03T08:25:04.448Z,29.89
2022-08-03T08:28:29.705Z,29.08
2022-08-03T08:30:20.542Z,28.71
2022-08-03T08:32:48.111Z,29.46
2022-08-03T08:35:15.025Z,29.29
2022-08-03T08:37:41.683Z,29.64
2022-08-03T08:40:09.414Z,29.05
2022-08-03T08:42:47.934Z,27.51
2022-08-03T08:45:24.448Z,26.83
2022-08-03T08:47:54.711Z,27.58
2022-08-03T08:50:29.555Z,30.30
2022-08-03T08:53:00.282Z,28.59
2022-08-03T08:55:27.213Z,28.61
2022-08-03T08:58:01.641Z,30.92
2022-08-03T09:00:28.276Z,30.65
2022-08-03T09:02:54.842Z,29.23
2022-08-03T09:05:35.796Z,29.57
2022-08-03T09:08:08.349Z,31.20
2022-08-03T09:10:35.450Z,28.65
2022-08-03T09:13:02.075Z,30.73
2022-08-03T09:15:34.014Z,30.83
2022-08-03T09:18:03.964Z,29.14
2022-08-03T09:20:34.398Z,29.82
2022-08-03T09:23:44.808Z,29.33
2022-08-03T09:26:00.027Z,29.74
2022-08-03T09:28:59.439Z,31.23
2022-08-03T09:31:39.615Z,30.14
2022-08-03T09:34:12.530Z,28.67
2022-08-03T09:36:46.773Z,28.84
2022-08-03T09:39:41.446Z,29.56
2022-08-03T09:42:11.030Z,30.71
2022-08-03T09:44:49.389Z,28.42
2022-08-03T09:47:28.375Z,27.74
2022-08-03T09:50:02.103Z,28.97
2022-08-03T09:52:52.416Z,27.00
2022-08-03T09:56:35.605Z,29.46
2022-08-03T09:58:11.599Z,29.57
2022-08-03T10:00:58.200Z,28.65
2022-08-03T10:03:27.414Z,28.07
2022-08-03T10:05:59.355Z,30.14
2022-08-03T10:08:26.768Z,30.85
2022-08-03T10:10:58.613Z,29.05
2022-08-03T10:13:25.770Z,28.80
2022-08-03T10:16:23.116Z,30.54
2022-08-03T10:18:38.887Z,29.44
2022-08-03T10:21:10.420Z,28.55
2022-08-03T10:23:38.586Z,28.37
2022-08-03T10:26:08.157Z,27.89
2022-08-03T10:28:42.962Z,30.07
2022-08-03T10:31:13.923Z,31.67
2022-08-03T10:33:51.329Z,31.62
2022-08-03T10:36:24.385Z,30.07
2022-08-03T10:38:53.326Z,29.62
2022-08-03T10:41:21.979Z,30.26
2022-08-03T10:44:10.541Z,31.68
2022-08-03T10:46:44.459Z,30.74
2022-08-03T10:49:34.846Z,29.45
2022-08-03T10:52:06.578Z,30.12
2022-08-03T10:55:00.511Z,32.54
2022-08-03T10:57:50.311Z,32.81
2022-08-03T11:00:21.390Z,32.17
2022-08-03T11:03:07.297Z,32.44
2022-08-03T11:05:37.081Z,31.14
2022-08-03T11:08:20.450Z,32.18
2022-08-03T11:10:48.161Z,30.88
2022-08-03T11:13:18.789Z,31.36
2022-08-03T11:15:47.517Z,32.28
2022-08-03T11:18:15.598Z,32.36
2022-08-03T11:20:51.471Z,31.93
2022-08-03T11:24:03.321Z,31.75
2022-08-03T11:26:25.985Z,31.58
2022-08-03T11:28:52.576Z,32.27
2022-08-03T11:31:48.626Z,32.47
2022-08-03T11:34:14.469Z,31.50
2022-08-03T11:37:21.113Z,30.90
2022-08-03T11:39:50.052Z,30.87
2022-08-03T11:42:40.143Z,30.49
2022-08-03T11:45:07.777Z,30.14
2022-08-03T11:47:37.481Z,29.40
2022-08-03T11:50:19.031Z,29.29
2022-08-03T11:52:45.527Z,30.38
2022-08-03T11:55:14.331Z,29.59
2022-08-03T11:58:58.396Z,29.76
2022-08-03T12:00:32.309Z,30.21
2022-08-03T12:03:11.934Z,30.94
2022-08-03T12:05:51.353Z,30.53
2022-08-03T12:08:27.946Z,30.07
2022-08-03T12:10:56.331Z,29.73
2022-08-03T12:14:45.214Z,29.81
2022-08-03T12:16:20.105Z,29.81
2022-08-03T12:19:14.888Z,30.89
2022-08-03T12:21:56.961Z,31.04
2022-08-03T12:24:24.054Z,30.73
2022-08-03T12:26:54.519Z,30.30
2022-08-03T12:29:26.541Z,29.04
2022-08-03T12:31:53.375Z,30.63
2022-08-03T12:34:19.936Z,30.91
2022-08-03T12:36:55.828Z,30.58
2022-08-03T12:39:31.037Z,30.81
2022-08-03T12:41:57.859Z,31.95
2022-08-03T12:44:35.774Z,30.81
2022-08-03T12:47:04.394Z,30.87
2022-08-03T12:49:49.093Z,30.43
2022-08-03T12:52:16.473Z,30.34
2022-08-03T12:54:43.825Z,31.57
2022-08-03T12:57:15.690Z,31.33
2022-08-03T12:59:55.901Z,31.50
2022-08-03T13:02:25.591Z,31.46
2022-08-03T13:04:54.263Z,31.37
2022-08-03T13:07:22.019Z,31.34
2022-08-03T13:09:56.067Z,32.05
2022-08-03T13:12:27.907Z,32.03
2022-08-03T13:15:00.728Z,30.25
2022-08-03T13:17:28.201Z,29.88
2022-08-03T13:19:54.903Z,30.96
2022-08-03T13:22:22.472Z,30.28
2022-08-03T13:24:55.941Z,30.75
2022-08-03T13:28:03.721Z,30.16
2022-08-03T13:30:10.243Z,30.25
2022-08-03T13:32:37.229Z,29.37
2022-08-03T13:35:04.374Z,30.17
2022-08-03T13:37:34.699Z,30.65
2022-08-03T13:40:04.520Z,30.20
2022-08-03T13:42:34.329Z,29.38
2022-08-03T13:45:05.027Z,30.27
2022-08-03T13:47:31.695Z,30.91
2022-08-03T13:50:01.012Z,30.57
2022-08-03T13:52:30.061Z,29.73
2022-08-03T13:54:56.683Z,29.50
2022-08-03T13:58:03.395Z,30.58
2022-08-03T14:00:10.597Z,30.38
2022-08-03T14:02:38.334Z,31.11
2022-08-03T14:05:05.339Z,31.20
2022-08-03T14:07:31.929Z,31.20
2022-08-03T14:09:58.524Z,30.59
2022-08-03T14:12:25.079Z,30.68
2022-08-03T14:17:42.308Z,29.85
2022-08-03T14:20:38.568Z,29.61
2022-08-03T14:23:03.463Z,30.63
2022-08-03T14:25:31.251Z,30.41
2022-08-03T14:28:10.242Z,30.28
2022-08-03T14:30:36.793Z,30.82
2022-08-03T14:33:03.556Z,30.61
2022-08-03T14:35:35.097Z,30.78
2022-08-03T14:38:01.755Z,31.03
2022-08-03T14:40:28.316Z,31.33
2022-08-03T14:42:55.318Z,30.51
2022-08-03T14:45:21.992Z,30.87
2022-08-03T14:50:33.074Z,30.62
2022-08-03T14:50:42.837Z,30.67
2022-08-03T14:53:10.881Z,30.96
2022-08-03T14:55:38.881Z,31.18
2022-08-03T14:58:19.996Z,30.59
2022-08-03T15:00:47.565Z,31.10
2022-08-03T15:03:16.587Z,30.68
2022-08-03T15:05:44.146Z,30.59
2022-08-03T15:08:10.707Z,30.51
2022-08-03T15:10:43.854Z,30.52
2022-08-03T15:13:11.486Z,30.60
2022-08-03T15:15:38.025Z,31.27
2022-08-03T15:18:10.776Z,30.74
2022-08-03T15:20:45.069Z,31.82
2022-08-03T15:23:13.983Z,30.92
2022-08-03T15:26:31.864Z,30.37
2022-08-03T15:28:27.342Z,30.63
2022-08-03T15:30:54.369Z,30.30
2022-08-03T15:33:20.968Z,31.00
2022-08-03T15:35:47.959Z,30.64
2022-08-03T15:38:14.802Z,30.90
2022-08-03T15:40:41.638Z,30.87
2022-08-03T15:43:08.593Z,30.74
2022-08-03T15:45:36.522Z,30.58
2022-08-03T15:48:04.999Z,31.04
2022-08-03T15:50:31.582Z,30.94
2022-08-03T15:52:58.205Z,31.37
2022-08-03T15:55:25.027Z,31.27
2022-08-03T15:58:59.573Z,31.27
2022-08-03T16:00:41.407Z,31.41
2022-08-03T16:03:08.098Z,31.37
2022-08-03T16:05:35.656Z,31.15
2022-08-03T16:08:04.330Z,31.40
2022-08-03T16:10:32.648Z,31.68
2022-08-03T16:13:00.206Z,31.36
2022-08-03T16:15:26.851Z,31.23
2022-08-03T16:17:53.443Z,30.95
2022-08-03T16:20:29.703Z,31.65
2022-08-03T16:23:08.441Z,31.49
2022-08-03T16:25:41.845Z,30.85
2022-08-03T16:28:13.890Z,30.56
2022-08-03T16:30:44.215Z,31.12
2022-08-03T16:33:16.563Z,31.45
2022-08-03T16:35:46.458Z,31.28
2022-08-03T16:38:18.337Z,31.45
2022-08-03T16:40:46.984Z,31.05
2022-08-03T16:43:18.101Z,31.58
2022-08-03T16:45:46.784Z,31.52
2022-08-03T16:48:13.688Z,31.59
2022-08-03T16:50:40.250Z,31.61
2022-08-03T16:53:09.365Z,31.65
2022-08-03T16:55:48.418Z,31.95
2022-08-03T16:58:19.693Z,31.51
2022-08-03T17:01:06.374Z,31.72
2022-08-03T17:04:02.727Z,32.30
2022-08-03T17:06:55.109Z,31.94
2022-08-03T17:09:22.023Z,32.40
2022-08-03T17:11:50.147Z,32.08
2022-08-03T17:14:22.005Z,31.74
2022-08-03T17:16:52.245Z,32.05
2022-08-03T17:19:23.280Z,32.03
2022-08-03T17:22:08.823Z,32.52
2022-08-03T17:24:41.343Z,32.24
2022-08-03T17:27:18.546Z,32.17
2022-08-03T17:30:07.743Z,32.82
2022-08-03T17:32:37.144Z,33.45
2022-08-03T17:35:18.395Z,34.98
2022-08-03T17:37:57.635Z,34.88
2022-08-03T17:40:25.562Z,35.00
2022-08-03T17:42:52.614Z,34.74
2022-08-03T17:45:20.330Z,35.67
2022-08-03T17:47:57.446Z,35.60
2022-08-03T17:50:34.483Z,34.87
2022-08-03T17:53:15.705Z,36.15
2022-08-03T17:56:06.587Z,37.32
2022-08-03T17:58:59.241Z,38.14
2022-08-03T18:02:05.700Z,38.57
2022-08-03T18:04:45.456Z,38.81
2022-08-03T18:07:41.130Z,36.87
2022-08-03T18:10:11.244Z,39.28
2022-08-03T18:15:40.075Z,40.00
2022-08-03T18:18:10.590Z,40.08
2022-08-03T18:20:41.697Z,41.05
2022-08-03T18:23:25.521Z,40.94
2022-08-03T18:26:01.915Z,41.71
2022-08-03T18:28:29.159Z,42.16
2022-08-03T18:30:57.286Z,41.90
2022-08-03T18:34:17.133Z,41.69
2022-08-03T18:36:21.850Z,42.06
2022-08-03T18:38:58.385Z,42.52
2022-08-03T18:41:33.179Z,39.16
2022-08-03T18:44:08.066Z,40.58
2022-08-03T18:46:50.330Z,41.69
2022-08-03T18:49:26.037Z,42.35
2022-08-03T18:52:03.953Z,42.83
2022-08-03T18:54:46.070Z,42.10
2022-08-03T18:57:38.145Z,42.91
2022-08-03T19:00:05.545Z,40.53
2022-08-03T19:02:41.274Z,42.91
2022-08-03T19:05:18.855Z,42.47
2022-08-03T19:07:59.609Z,41.41
2022-08-03T19:10:31.446Z,42.58
2022-08-03T19:13:11.359Z,42.95
2022-08-03T19:15:51.469Z,42.35
2022-08-03T19:18:20.399Z,42.06
2022-08-03T19:20:51.080Z,43.97
2022-08-03T19:23:25.047Z,42.11
2022-08-03T19:25:53.788Z,42.84
2022-08-03T19:28:21.836Z,42.64
2022-08-03T19:30:59.196Z,44.10
2022-08-03T19:33:31.417Z,44.58
2022-08-03T19:36:18.087Z,43.58
2022-08-03T19:38:54.661Z,45.31
2022-08-03T19:41:24.776Z,46.35
2022-08-03T19:44:00.453Z,45.83
2022-08-03T19:46:33.934Z,43.38
2022-08-03T19:49:14.569Z,46.22
2022-08-03T19:52:01.863Z,46.01
2022-08-03T19:54:52.981Z,47.16
2022-08-03T19:57:29.821Z,45.99
2022-08-03T19:59:58.878Z,45.70
2022-08-03T20:02:30.820Z,46.50
2022-08-03T20:04:59.958Z,46.07
2022-08-03T20:07:28.648Z,44.90
2022-08-03T20:09:56.669Z,47.21
2022-08-03T20:12:27.551Z,47.65
2022-08-03T20:14:58.554Z,48.26
2022-08-03T20:17:54.077Z,47.57
2022-08-03T20:20:13.738Z,48.05
2022-08-03T20:22:45.616Z,47.73
2022-08-03T20:25:20.686Z,47.84
2022-08-03T20:28:07.046Z,48.56
2022-08-03T20:30:43.221Z,49.12
2022-08-03T20:33:10.188Z,47.59
2022-08-03T20:35:41.932Z,49.09
2022-08-03T20:38:12.450Z,48.31
2022-08-03T20:40:39.136Z,48.00
2022-08-03T20:43:09.230Z,48.16
2022-08-03T20:45:58.206Z,48.56
2022-08-03T20:48:23.269Z,47.13
2022-08-03T20:50:59.403Z,47.48
2022-08-03T20:53:59.698Z,48.29
2022-08-03T20:56:27.947Z,49.30
2022-08-03T20:58:55.156Z,50.01
2022-08-03T21:01:27.571Z,50.57
2022-08-03T21:03:55.820Z,51.14
2022-08-03T21:06:27.898Z,51.28
2022-08-03T21:09:04.934Z,51.69
2022-08-03T21:11:49.028Z,51.63
2022-08-03T21:12:57.247Z,39.78
2022-08-03T21:14:24.972Z,51.94
2022-08-03T21:16:56.791Z,52.29
2022-08-03T21:19:26.165Z,51.50
2022-08-03T21:21:55.302Z,51.10
2022-08-03T21:24:25.142Z,52.36
2022-08-03T21:26:54.975Z,52.05
2022-08-03T21:29:21.527Z,52.97
2022-08-03T21:31:49.303Z,51.47
2022-08-03T21:34:16.196Z,52.70
2022-08-03T21:36:43.276Z,52.08
2022-08-03T21:39:11.073Z,53.37
2022-08-03T21:41:39.796Z,52.47
2022-08-03T21:44:07.048Z,53.45
2022-08-03T21:46:39.868Z,54.03
2022-08-03T21:50:07.020Z,53.78
2022-08-03T21:51:59.513Z,53.38
2022-08-03T21:54:33.929Z,54.27
2022-08-03T21:57:04.466Z,52.32
2022-08-03T21:59:36.492Z,54.16
2022-08-03T22:02:03.474Z,53.80
2022-08-03T22:04:53.122Z,53.71
2022-08-03T22:07:19.799Z,52.58
2022-08-03T22:09:50.145Z,53.46
2022-08-03T22:12:23.777Z,54.61
2022-08-03T22:15:00.021Z,54.72
2022-08-03T22:17:55.596Z,54.12
2022-08-03T22:20:15.917Z,54.42
2022-08-03T22:22:55.193Z,54.13
2022-08-03T22:25:27.398Z,54.03
2022-08-03T22:27:54.922Z,53.51
2022-08-03T22:30:21.620Z,54.05
2022-08-03T22:32:51.847Z,54.00
2022-08-03T22:35:20.815Z,54.22
2022-08-03T22:37:52.526Z,54.69
2022-08-03T22:40:19.321Z,54.49
2022-08-03T22:42:49.310Z,55.04
2022-08-03T22:46:05.940Z,54.37
2022-08-03T22:48:07.934Z,54.86
2022-08-03T22:50:35.312Z,54.93
2022-08-03T22:53:02.097Z,55.24
2022-08-03T22:55:29.146Z,55.49
2022-08-03T22:57:56.467Z,54.20
2022-08-03T23:00:24.193Z,55.34
2022-08-03T23:02:53.829Z,55.78
2022-08-03T23:06:02.060Z,55.35
2022-08-03T23:08:14.991Z,55.79
2022-08-03T23:10:46.707Z,55.27
2022-08-03T23:13:17.803Z,55.57
2022-08-03T23:15:55.040Z,55.87
2022-08-03T23:18:23.431Z,55.62
2022-08-03T23:20:53.314Z,54.93
2022-08-03T23:23:20.978Z,54.32
2022-08-03T23:25:50.592Z,53.13
2022-08-03T23:28:18.244Z,54.54
2022-08-03T23:30:45.480Z,53.33
2022-08-03T23:33:16.214Z,53.82
2022-08-03T23:36:27.585Z,55.32
2022-08-03T23:38:47.741Z,54.52
2022-08-03T23:41:17.513Z,53.92
2022-08-03T23:43:53.571Z,54.58
2022-08-03T23:46:24.859Z,54.90
2022-08-03T23:48:51.437Z,54.07
2022-08-03T23:51:52.254Z,55.19
2022-08-03T23:54:39.539Z,54.85
2022-08-03T23:57:31.886Z,55.06
